Latest Weather Observations for Bushy Park

IDT60801

Issued at 7:31 pm EST Tuesday 30 June 2015 (issued every 30 minutes, with the page automatically refreshed every 10 minutes)

About weather observations | Map of weather stations | Latest weather observations for TAS | Other Formats
Station Details ID: 095003 Name: BUSHY PARK (BUSHY PARK ESTATES) Lat: -42.71 Lon: 146.90 Height: 27.0 m
Data from the previous 72 hours. | See also: Recent months at Bushy Park
Date/Time
EST
Temp
°C
App
Temp
°C
Dew
Point
Rel
Hum
%
Delta-T
°C
Wind Press
QNH
hPa
Press
MSL
hPa
Rain
since 9 am
mm
Dir
 
Spd
km/h
Gust
km/h
Spd
kts
Gust
kts
30/07:30pm 6.1 2.3 4.0 86 0.9 NNW 13 15 7 8 - - 0.0
30/07:00pm 6.0 2.6 3.9 86 0.9 NNW 11 13 6 7 - - 0.0
30/06:30pm 7.3 4.0 4.6 83 1.2 N 11 13 6 7 - - 0.0
30/06:00pm 8.9 6.0 4.7 75 1.9 N 9 11 5 6 - - 0.0
30/05:30pm 10.7 6.6 4.3 64 2.9 WNW 15 19 8 10 - - 0.0
30/05:00pm 11.1 6.9 4.0 61 3.2 W 15 22 8 12 - - 0.0
30/04:30pm 11.4 8.4 4.1 61 3.3 WNW 9 15 5 8 - - 0.0
30/04:00pm 11.6 9.4 6.1 69 2.6 W 7 11 4 6 - - 0.0
30/03:30pm 13.7 10.6 5.5 57 3.9 N 11 15 6 8 - - 0.0
30/03:00pm 13.6 10.5 5.4 57 3.8 N 11 13 6 7 - - 0.0
30/02:30pm 14.8 11.6 5.1 52 4.6 N 11 15 6 8 - - 0.0
30/02:00pm 14.1 10.9 5.2 55 4.2 N 11 15 6 8 - - 0.0
30/01:30pm 13.7 11.3 5.2 56 4.0 N 7 11 4 6 - - 0.0
30/01:00pm 13.5 10.8 5.5 58 3.8 N 9 11 5 6 - - 0.0
30/12:30pm 12.4 9.9 4.6 59 3.6 NE 7 9 4 5 - - 0.0
30/12:00pm 11.4 8.9 4.9 64 3.0 N 7 11 4 6 - - 0.0
30/11:30am 10.2 7.6 4.2 66 2.7 N 7 7 4 4 - - 0.0
30/11:00am 7.7 5.2 3.5 75 1.8 NE 6 9 3 5 - - 0.0
30/10:30am 7.2 5.3 3.0 74 1.8 ESE 2 6 1 3 - - 0.0
30/10:00am 4.9 2.4 1.7 80 1.3 E 4 7 2 4 - - 0.0
30/09:30am 3.1 1.0 1.6 90 0.6 SE 2 7 1 4 - - 0.0
30/09:00am 1.4 -0.9 0.6 94 0.3 NNE 2 6 1 3 - - 0.0
30/08:30am 0.3 - - - - CALM 0 6 0 3 - - 0.0
30/08:00am -0.7 - - - - E 2 7 1 4 - - 0.0
30/07:30am -0.7 - - - - SE 4 11 2 6 - - 0.0
30/07:00am -1.1 - - - - N 7 9 4 5 - - 0.0
30/06:30am -1.0 - - - - W 4 7 2 4 - - 0.0
30/06:00am -1.0 - - - - WNW 4 9 2 5 - - 0.0
30/05:30am -0.2 - - - - N 4 7 2 4 - - 0.0
30/05:00am -0.3 - - - - N 6 7 3 4 - - 0.0
30/04:30am -0.6 - - - - SSW 6 9 3 5 - - 0.0
30/04:00am -0.3 - - - - CALM 0 0 0 0 - - 0.0
30/03:30am -0.1 - - - - CALM 0 0 0 0 - - 0.0
30/03:00am 0.4 - - - - SSW 6 9 3 5 - - 0.0
30/02:30am 0.2 - - - - NNE 2 9 1 5 - - 0.0
30/02:00am 0.9 -2.4 0.4 96 0.2 NW 7 9 4 5 - - 0.0
30/01:30am 0.6 -1.4 0.1 96 0.2 CALM 0 0 0 0 - - 0.0
30/01:00am 1.6 -0.6 0.8 94 0.3 ESE 2 6 1 3 - - 0.0
30/12:30am 1.5 -0.3 1.0 96 0.2 CALM 0 0 0 0 - - 0.0
30/12:00am 2.0 -1.0 0.7 91 0.5 WNW 6 7 3 4 - - 0.0
 
Date/Time
EST
Temp
°C
App
Temp
°C
Dew
Point
Rel
Hum
%
Delta-T
°C
Wind Press
QNH
hPa
Press
MSL
hPa
Rain
since 9 am
mm
Dir
 
Spd
km/h
Gust
km/h
Spd
kts
Gust
kts
29/11:30pm 2.7 -0.2 1.4 91 0.5 W 6 9 3 5 - - 0.0
29/11:00pm 2.8 0.7 1.8 93 0.4 SW 2 7 1 4 - - 0.0
29/10:30pm 3.7 0.7 2.2 90 0.6 N 7 9 4 5 - - 0.0
29/10:00pm 5.3 2.2 3.4 87 0.8 NNW 9 11 5 6 - - 0.0
29/09:30pm 5.5 2.5 3.9 89 0.7 N 9 15 5 8 - - 0.0
29/09:00pm 7.0 3.6 4.0 81 1.3 NNW 11 15 6 8 - - 0.0
29/08:30pm 6.0 1.4 3.9 86 0.9 NNW 17 20 9 11 - - 0.0
29/08:00pm 6.8 3.5 4.5 85 1.0 N 11 15 6 8 - - 0.0
29/07:30pm 7.3 4.0 4.6 83 1.2 NNW 11 15 6 8 - - 0.0
29/07:00pm 8.7 5.1 4.9 77 1.7 N 13 15 7 8 - - 0.0
29/06:30pm 8.5 4.8 4.5 76 1.8 NW 13 20 7 11 - - 0.0
29/06:00pm 8.9 6.0 4.7 75 1.9 NNW 9 13 5 7 - - 0.0
29/05:30pm 10.3 6.7 5.1 70 2.4 W 13 20 7 11 - - 0.0
29/05:00pm 12.2 8.1 4.3 58 3.6 WNW 15 20 8 11 - - 0.0
29/04:30pm 12.8 8.3 4.0 55 4.0 W 17 30 9 16 - - 0.0
29/04:00pm 13.5 8.6 3.9 52 4.4 W 19 35 10 19 - - 0.0
29/03:30pm 14.5 10.0 4.2 50 4.7 W 17 28 9 15 - - 0.0
29/03:00pm 15.1 11.4 4.7 50 4.9 W 13 24 7 13 - - 0.0
29/02:30pm 15.6 12.7 4.6 48 5.2 W 9 19 5 10 - - 0.0
29/02:00pm 16.1 12.9 5.3 48 5.2 W 11 19 6 10 - - 0.0
29/01:30pm 16.0 12.5 5.4 49 5.1 WSW 13 24 7 13 - - 0.0
29/01:00pm 16.8 13.6 4.9 45 5.7 NW 11 17 6 9 - - 0.0
29/12:30pm 16.5 13.3 5.3 47 5.4 N 11 19 6 10 - - 0.0
29/12:00pm 15.9 13.1 5.0 48 5.2 N 9 13 5 7 - - 0.0
29/11:30am 15.9 12.1 5.6 50 4.9 NNE 15 20 8 11 - - 0.0
29/11:00am 14.8 10.0 4.6 50 4.7 W 19 35 10 19 - - 0.0
29/10:30am 14.6 10.5 4.3 50 4.8 W 15 35 8 19 - - 0.0
29/10:00am 13.8 10.8 5.9 59 3.8 NNE 11 22 6 12 - - 0.0
29/09:30am 13.5 9.8 6.5 62 3.4 NNE 15 22 8 12 - - 0.0
29/09:00am 10.7 8.2 6.5 75 2.0 NE 9 15 5 8 - - 0.0
29/08:30am 9.2 7.1 5.7 79 1.6 N 6 9 3 5 - - 0.0
29/08:00am 7.2 3.7 5.4 88 0.8 NNW 13 17 7 9 - - 0.0
29/07:30am 7.3 4.1 5.3 87 0.9 NNW 11 17 6 9 - - 0.0
29/07:00am 7.8 4.3 5.6 86 1.0 N 13 15 7 8 - - 0.0
29/06:30am 8.3 5.2 5.7 84 1.2 N 11 15 6 8 - - 0.0
29/06:00am 8.6 5.1 5.5 81 1.4 N 13 17 7 9 - - 0.0
29/05:30am 10.1 6.3 5.8 74 2.0 NNW 15 22 8 12 - - 0.0
29/05:00am 10.9 7.5 5.8 71 2.4 NNW 13 19 7 10 - - 0.0
29/04:30am 11.6 6.9 6.1 69 2.6 WNW 20 30 11 16 - - 0.0
29/04:00am 11.4 6.7 6.1 70 2.5 WNW 20 30 11 16 - - 0.0
29/03:30am 11.3 6.7 5.8 69 2.6 WNW 19 26 10 14 - - 0.0
29/03:00am 12.1 7.0 4.2 58 3.6 W 20 32 11 17 - - 0.0
29/02:30am 11.5 7.6 5.3 65 2.9 NNW 15 19 8 10 - - 0.0
29/02:00am 11.9 7.2 5.0 62 3.2 W 19 28 10 15 - - 0.0
29/01:30am 12.2 7.4 5.4 63 3.2 WNW 20 41 11 22 - - 0.0
29/01:00am 11.7 7.5 5.7 66 2.8 WNW 17 26 9 14 - - 0.0
29/12:30am 12.3 7.5 5.5 63 3.2 W 20 37 11 20 - - 0.0
29/12:00am 11.3 7.7 5.0 65 2.9 WNW 13 26 7 14 - - 0.0
 
Date/Time
EST
Temp
°C
App
Temp
°C
Dew
Point
Rel
Hum
%
Delta-T
°C
Wind Press
QNH
hPa
Press
MSL
hPa
Rain
since 9 am
mm
Dir
 
Spd
km/h
Gust
km/h
Spd
kts
Gust
kts
28/11:30pm 11.0 7.5 5.6 69 2.5 WNW 13 20 7 11 - - 0.0
28/11:00pm 11.6 7.2 4.9 63 3.1 WNW 17 33 9 18 - - 0.0
28/10:30pm 10.2 5.4 4.9 69 2.4 W 19 30 10 16 - - 0.0
28/10:00pm 9.1 6.4 5.4 77 1.7 NNW 9 15 5 8 - - 0.0
28/09:30pm 13.3 8.5 4.4 55 4.1 W 19 37 10 20 - - 0.0
28/09:00pm 13.3 8.3 4.7 56 4.0 W 20 41 11 22 - - 0.0
28/08:30pm 13.2 8.2 4.8 56 3.9 W 20 37 11 20 - - 0.0
28/08:00pm 13.0 7.7 5.1 58 3.7 W 22 37 12 20 - - 0.0
28/07:30pm 13.4 7.3 4.6 55 4.1 W 26 44 14 24 - - 0.0
28/07:00pm 12.7 8.3 5.0 59 3.6 WNW 17 32 9 17 - - 0.0
28/06:30pm 13.1 8.3 4.7 56 3.9 W 19 32 10 17 - - 0.0
28/06:00pm 12.7 7.7 4.7 58 3.7 W 20 32 11 17 - - 0.0
28/05:30pm 12.1 9.0 5.7 65 3.0 WNW 11 17 6 9 - - 0.0
28/05:00pm 12.9 9.0 5.5 60 3.5 WNW 15 26 8 14 - - 0.0
28/04:30pm 13.1 9.2 5.5 60 3.6 W 15 26 8 14 - - 0.0
28/04:00pm 13.7 9.0 6.0 59 3.7 W 20 28 11 15 - - 0.0
28/03:30pm 13.5 11.2 7.4 66 3.0 N 9 13 5 7 - - 0.0
28/03:00pm 13.5 10.7 7.0 65 3.2 N 11 17 6 9 - - 0.0
28/02:30pm 13.7 12.1 7.9 68 2.9 N 6 9 3 5 - - 0.0
28/02:00pm 14.2 11.7 6.4 59 3.8 NNW 9 17 5 9 - - 0.0
28/01:30pm 13.6 9.9 6.4 62 3.5 NNW 15 26 8 14 - - 0.0
28/01:00pm 13.7 10.3 6.0 59 3.7 WNW 13 22 7 12 - - 0.0
28/12:30pm 13.3 8.7 5.7 60 3.6 W 19 37 10 20 - - 0.0
28/12:00pm 13.6 8.8 4.6 54 4.1 NW 19 26 10 14 - - 0.0
28/11:30am 13.7 10.4 4.7 54 4.2 NNW 11 17 6 9 - - 0.0
28/11:00am 13.4 10.4 5.9 60 3.6 NNW 11 13 6 7 - - 0.0
28/10:30am 13.5 10.2 6.2 61 3.5 N 13 19 7 10 - - 0.0
28/10:00am 12.6 9.6 5.9 63 3.2 N 11 13 6 7 - - 0.0
28/09:30am 11.0 7.6 3.9 61 3.2 NW 11 19 6 10 - - 0.0
28/09:00am 11.2 7.4 3.8 60 3.3 N 13 15 7 8 - - 0.0
28/08:30am 10.0 6.0 3.1 62 3.0 N 13 17 7 9 - - 0.0
28/08:00am 9.8 5.8 2.9 62 3.0 NNW 13 15 7 8 - - 0.0
28/07:30am 10.7 5.3 2.7 57 3.4 WNW 20 32 11 17 - - 0.0
28/07:04am 11.4 4.4 1.9 52 4.0 WNW 28 54 15 29 - - 0.0
28/07:00am 11.2 5.2 1.3 50 4.2 WNW 22 37 12 20 - - 0.0
28/06:30am 10.6 3.9 1.7 54 3.7 WSW 26 50 14 27 - - 0.0
28/06:07am 10.8 3.7 1.6 53 3.9 W 28 46 15 25 - - 0.0
28/06:00am 10.8 4.5 1.6 53 3.9 W 24 43 13 23 - - 0.0
28/05:43am 10.8 3.7 1.6 53 3.9 NW 28 46 15 25 - - 0.0
28/05:30am 11.0 4.8 2.2 54 3.8 NNW 24 35 13 19 - - 0.0
28/05:00am 11.1 4.7 3.2 58 3.5 NNW 26 39 14 21 - - 0.0
28/04:30am 11.3 6.1 3.4 58 3.5 NW 20 30 11 16 - - 0.0
28/04:00am 11.4 5.6 4.4 62 3.2 NNW 24 32 13 17 - - 0.0
28/03:30am 11.3 7.1 5.8 69 2.6 NNW 17 33 9 18 - - 0.0
28/03:00am 11.5 7.3 7.6 77 1.9 WSW 19 30 10 16 - - 0.0
28/02:30am 12.7 5.9 5.2 60 3.5 WNW 30 48 16 26 - - 0.0
28/02:12am 13.3 6.7 4.2 54 4.1 WNW 28 52 15 28 - - 0.0
28/02:00am 13.0 6.9 4.6 56 3.9 WNW 26 37 14 20 - - 0.0
28/01:31am 12.9 6.3 4.4 56 3.9 WNW 28 46 15 25 - - 0.0
28/01:30am 12.9 6.7 4.2 55 4.0 WNW 26 44 14 24 - - 0.0
28/01:16am 13.0 6.4 4.0 54 4.1 NW 28 48 15 26 - - 0.0
28/01:00am 12.6 6.5 4.6 58 3.7 W 26 56 14 30 - - 0.0
28/12:30am 12.8 5.8 4.0 55 4.0 W 30 56 16 30 - - 0.0
28/12:01am 12.7 6.0 3.9 55 4.0 NW 28 54 15 29 - - 0.0
28/12:00am 12.6 6.7 4.1 56 3.8 NNW 24 50 13 27 - - 0.0
 
Date/Time
EST
Temp
°C
App
Temp
°C
Dew
Point
Rel
Hum
%
Delta-T
°C
Wind Press
QNH
hPa
Press
MSL
hPa
Rain
since 9 am
mm
Dir
 
Spd
km/h
Gust
km/h
Spd
kts
Gust
kts
27/11:39pm 12.8 6.1 3.8 54 4.1 WNW 28 54 15 29 - - 0.0
27/11:30pm 12.3 7.4 4.2 57 3.7 WNW 19 33 10 18 - - 0.0
27/11:00pm 12.5 5.1 3.9 56 3.9 WNW 32 61 17 33 - - 0.0
27/10:30pm 12.4 5.3 3.5 54 4.0 WNW 30 54 16 29 - - 0.0
27/10:00pm 12.4 5.6 3.2 53 4.1 WNW 28 59 15 32 - - 0.0
27/09:30pm 12.5 4.7 2.8 51 4.3 W 33 61 18 33 - - 0.0
27/09:00pm 12.2 5.0 3.2 54 4.0 W 30 54 16 29 - - 0.0
27/08:36pm 12.3 5.6 3.4 54 4.0 WNW 28 54 15 29 - - 0.0
27/08:30pm 12.2 5.8 3.2 54 4.0 WNW 26 41 14 22 - - 0.0
27/08:00pm 10.8 6.7 4.1 63 3.0 NNW 15 26 8 14 - - 0.0

Other Formats:

Comma delimited format used in spreadsheet applications
http://www.bom.gov.au/fwo/IDT60801/IDT60801.94964.axf

JavaScript Object Notation format (JSON) in row-major order
http://www.bom.gov.au/fwo/IDT60801/IDT60801.94964.json